createdAt,value
2023-03-20T00:02:56.853Z,6.60
2023-03-20T00:08:00.050Z,6.50
2023-03-20T00:13:04.853Z,6.40
2023-03-20T00:18:16.837Z,6.40
2023-03-20T00:23:19.709Z,6.20
2023-03-20T00:28:41.908Z,6.00
2023-03-20T00:33:45.749Z,5.90
2023-03-20T00:38:48.427Z,5.80
2023-03-20T00:43:59.020Z,5.80
2023-03-20T00:49:02.138Z,5.80
2023-03-20T00:54:16.094Z,5.80
2023-03-20T00:59:21.734Z,5.80
2023-03-20T01:04:24.829Z,5.80
2023-03-20T01:09:27.357Z,5.80
2023-03-20T01:14:30.284Z,5.80
2023-03-20T01:19:33.121Z,5.90
2023-03-20T01:24:35.763Z,5.80
2023-03-20T01:29:38.513Z,5.80
2023-03-20T01:34:41.482Z,5.70
2023-03-20T01:39:44.484Z,5.60
2023-03-20T01:44:47.621Z,5.70
2023-03-20T01:50:32.629Z,5.60
2023-03-20T01:55:43.156Z,5.50
2023-03-20T02:00:48.952Z,5.50
2023-03-20T02:05:54.123Z,5.50
2023-03-20T02:11:01.260Z,5.10
2023-03-20T02:16:10.744Z,4.90
2023-03-20T02:22:01.183Z,4.70
2023-03-20T02:27:41.402Z,4.60
2023-03-20T02:33:20.750Z,4.60
2023-03-20T02:38:48.604Z,4.20
2023-03-20T02:44:00.554Z,4.00
2023-03-20T02:49:29.905Z,4.00
2023-03-20T02:54:45.399Z,4.00
2023-03-20T03:00:00.688Z,4.20
2023-03-20T03:05:11.485Z,4.40
2023-03-20T03:10:32.396Z,4.50
2023-03-20T03:15:40.108Z,4.70
2023-03-20T03:20:44.302Z,4.80
2023-03-20T03:25:47.036Z,4.90
2023-03-20T03:30:51.476Z,5.00
2023-03-20T03:36:14.300Z,4.90
2023-03-20T03:41:31.977Z,4.70
2023-03-20T03:46:37.414Z,4.60
2023-03-20T03:51:43.998Z,4.60
2023-03-20T03:56:51.342Z,4.70
2023-03-20T04:01:56.756Z,4.60
2023-03-20T04:06:59.760Z,4.60
2023-03-20T04:12:03.960Z,4.60
2023-03-20T04:17:08.249Z,4.30
2023-03-20T04:22:11.080Z,4.00
2023-03-20T04:27:13.772Z,3.80
2023-03-20T04:32:16.686Z,3.70
2023-03-20T04:37:34.732Z,3.70
2023-03-20T04:42:43.228Z,3.70
2023-03-20T04:47:47.208Z,3.90
2023-03-20T04:52:50.312Z,4.00
2023-03-20T04:57:53.643Z,4.10
2023-03-20T05:02:56.448Z,4.40
2023-03-20T05:07:59.744Z,4.50
2023-03-20T05:13:08.696Z,4.50
2023-03-20T05:18:40.390Z,4.50
2023-03-20T05:23:51.403Z,4.60
2023-03-20T05:29:17.563Z,4.80
2023-03-20T05:34:55.668Z,5.00
2023-03-20T05:40:08.547Z,5.00
2023-03-20T05:45:11.629Z,5.20
2023-03-20T05:50:26.640Z,5.40
2023-03-20T05:55:35.606Z,5.40
2023-03-20T06:00:58.503Z,5.60
2023-03-20T06:06:21.196Z,5.80
2023-03-20T06:11:27.088Z,5.80
2023-03-20T06:16:30.058Z,6.00
2023-03-20T06:21:33.081Z,5.90
2023-03-20T06:26:36.844Z,5.90
2023-03-20T06:31:44.846Z,6.10
2023-03-20T06:36:59.228Z,6.70
2023-03-20T06:42:02.318Z,7.60
2023-03-20T06:47:05.290Z,8.30
2023-03-20T06:52:09.313Z,8.70
2023-03-20T06:57:15.382Z,8.80
2023-03-20T07:02:19.997Z,8.60
2023-03-20T07:07:23.540Z,8.60
2023-03-20T07:12:29.112Z,9.60
2023-03-20T07:17:36.029Z,10.70
2023-03-20T07:22:38.880Z,11.40
2023-03-20T07:28:01.917Z,11.20
2023-03-20T07:33:05.144Z,11.20
2023-03-20T07:38:09.481Z,11.40
2023-03-20T07:43:21.960Z,11.30
2023-03-20T07:48:59.676Z,11.40
2023-03-20T07:54:02.839Z,11.40
2023-03-20T07:59:06.019Z,11.80
2023-03-20T08:04:09.328Z,12.20
2023-03-20T08:09:12.300Z,12.40
2023-03-20T08:14:15.598Z,12.90
2023-03-20T08:19:18.290Z,13.50
2023-03-20T08:24:21.049Z,13.40
2023-03-20T08:29:23.824Z,13.70
2023-03-20T08:34:26.690Z,13.80
2023-03-20T08:39:29.407Z,14.20
2023-03-20T08:44:32.029Z,13.20
2023-03-20T08:49:35.316Z,13.20
2023-03-20T08:54:38.165Z,13.80
2023-03-20T08:59:41.245Z,14.80
2023-03-20T09:04:44.352Z,15.70
2023-03-20T09:09:47.171Z,16.50
2023-03-20T09:14:49.869Z,16.90
2023-03-20T09:19:52.562Z,16.90
2023-03-20T09:24:55.210Z,15.90
2023-03-20T09:29:57.894Z,17.30
2023-03-20T09:35:00.785Z,16.20
2023-03-20T09:40:04.620Z,15.60
2023-03-20T09:45:30.365Z,15.10
2023-03-20T09:50:43.495Z,15.70
2023-03-20T09:55:47.529Z,15.30
2023-03-20T10:00:50.501Z,16.50
2023-03-20T10:06:03.828Z,17.10
2023-03-20T10:11:24.965Z,17.30
2023-03-20T10:17:05.703Z,16.60
2023-03-20T10:22:27.027Z,16.30
2023-03-20T10:27:56.595Z,17.40
2023-03-20T10:32:59.400Z,17.80
2023-03-20T10:38:43.593Z,17.50
2023-03-20T10:43:49.975Z,17.90
2023-03-20T10:48:55.618Z,16.90
2023-03-20T10:54:04.824Z,16.20
2023-03-20T10:59:41.273Z,16.40
2023-03-20T11:04:44.857Z,15.80
2023-03-20T11:10:11.116Z,15.90
2023-03-20T11:15:32.042Z,16.10
2023-03-20T11:20:56.297Z,15.60
2023-03-20T11:26:02.254Z,15.50
2023-03-20T11:31:17.005Z,15.50
2023-03-20T11:36:30.305Z,15.10
2023-03-20T11:41:33.374Z,14.90
2023-03-20T11:46:36.226Z,14.60
2023-03-20T11:51:39.683Z,14.70
2023-03-20T11:56:53.401Z,14.30
2023-03-20T12:01:58.222Z,14.50
2023-03-20T12:07:28.446Z,15.00
2023-03-20T12:12:49.366Z,14.80
2023-03-20T12:17:56.802Z,14.80
2023-03-20T12:23:18.284Z,14.80
2023-03-20T12:28:30.070Z,15.20
2023-03-20T12:33:45.758Z,15.70
2023-03-20T12:38:48.661Z,15.10
2023-03-20T12:44:30.594Z,15.30
2023-03-20T12:50:12.779Z,15.10
2023-03-20T12:55:15.888Z,15.00
2023-03-20T13:00:36.560Z,15.30
2023-03-20T13:05:57.377Z,15.10
2023-03-20T13:11:06.874Z,15.00
2023-03-20T13:16:42.898Z,14.80
2023-03-20T13:22:04.022Z,14.70
2023-03-20T13:27:23.844Z,14.30
2023-03-20T13:32:38.775Z,14.50
2023-03-20T13:37:45.920Z,14.50
2023-03-20T13:43:06.538Z,14.20
2023-03-20T13:48:54.477Z,15.50
2023-03-20T13:54:15.719Z,17.20
2023-03-20T14:00:10.976Z,17.80
2023-03-20T14:05:26.914Z,18.20
2023-03-20T14:10:31.444Z,18.30
2023-03-20T14:15:37.046Z,16.90
2023-03-20T14:20:42.026Z,16.70
2023-03-20T14:25:45.975Z,16.00
2023-03-20T14:30:53.218Z,15.30
2023-03-20T14:36:12.876Z,15.00
2023-03-20T14:41:17.806Z,14.90
2023-03-20T14:46:44.745Z,14.70
2023-03-20T14:51:51.334Z,14.50
2023-03-20T14:56:54.799Z,14.30
2023-03-20T15:02:02.417Z,14.40
2023-03-20T15:07:17.708Z,14.40
2023-03-20T15:12:23.855Z,14.10
2023-03-20T15:17:41.711Z,14.00
2023-03-20T15:23:03.105Z,13.90
2023-03-20T15:28:15.461Z,13.90
2023-03-20T15:33:32.622Z,14.10
2023-03-20T15:38:35.756Z,14.10
2023-03-20T15:43:38.664Z,14.00
2023-03-20T15:48:41.527Z,13.80
2023-03-20T15:53:47.915Z,13.70
2023-03-20T15:58:55.731Z,13.60
2023-03-20T16:04:00.069Z,13.50
2023-03-20T16:09:07.905Z,13.40
2023-03-20T16:14:18.455Z,13.40
2023-03-20T16:19:21.853Z,13.30
2023-03-20T16:24:36.543Z,13.20
2023-03-20T16:29:43.838Z,13.20
2023-03-20T16:34:51.092Z,13.10
2023-03-20T16:40:13.479Z,13.00
2023-03-20T16:45:46.522Z,12.90
2023-03-20T16:50:55.672Z,12.80
2023-03-20T16:55:59.498Z,12.70
2023-03-20T17:01:09.948Z,12.60
2023-03-20T17:06:21.899Z,12.40
2023-03-20T17:11:31.405Z,12.30
2023-03-20T17:16:34.567Z,12.20
2023-03-20T17:21:37.972Z,12.00
2023-03-20T17:26:42.565Z,11.90
2023-03-20T17:31:46.473Z,11.70
2023-03-20T17:36:49.514Z,11.60
2023-03-20T17:41:52.395Z,11.50
2023-03-20T17:46:58.496Z,11.40
2023-03-20T17:52:01.804Z,11.30
2023-03-20T17:57:04.702Z,11.10
2023-03-20T18:02:07.712Z,11.00
2023-03-20T18:07:10.911Z,10.70
2023-03-20T18:12:18.975Z,10.50
2023-03-20T18:17:21.675Z,10.20
2023-03-20T18:22:24.344Z,10.00
2023-03-20T18:27:27.245Z,9.80
2023-03-20T18:32:30.147Z,9.60
2023-03-20T18:37:33.036Z,9.40
2023-03-20T18:42:35.968Z,9.30
2023-03-20T18:47:39.720Z,9.10
2023-03-20T18:52:42.752Z,9.00
2023-03-20T18:57:45.760Z,9.00
2023-03-20T19:02:50.136Z,8.90
2023-03-20T19:07:53.405Z,8.80
2023-03-20T19:12:57.337Z,8.70
2023-03-20T19:18:01.280Z,8.60
2023-03-20T19:23:06.753Z,8.40
2023-03-20T19:28:38.716Z,8.30
2023-03-20T19:33:42.569Z,8.30
2023-03-20T19:38:45.256Z,8.10
2023-03-20T19:43:53.200Z,8.10
2023-03-20T19:48:57.837Z,7.90
2023-03-20T19:54:01.105Z,7.90
2023-03-20T19:59:06.094Z,7.90
2023-03-20T20:04:08.745Z,8.00
2023-03-20T20:09:11.628Z,8.20
2023-03-20T20:14:15.274Z,8.20
2023-03-20T20:19:18.513Z,8.40
2023-03-20T20:24:21.399Z,8.50
2023-03-20T20:29:28.560Z,8.60
2023-03-20T20:39:54.461Z,8.70
2023-03-20T20:44:57.180Z,8.80
2023-03-20T20:50:04.044Z,8.80
2023-03-20T20:55:25.048Z,8.80
2023-03-20T21:00:45.313Z,8.80
2023-03-20T21:05:51.420Z,8.80
2023-03-20T21:10:53.971Z,8.70
2023-03-20T21:16:00.708Z,8.70
2023-03-20T21:21:08.852Z,8.60
2023-03-20T21:26:11.674Z,8.40
2023-03-20T21:31:28.612Z,8.50
2023-03-20T21:36:33.039Z,8.50
2023-03-20T21:41:38.121Z,8.50
2023-03-20T21:47:10.306Z,8.30
2023-03-20T21:52:49.905Z,8.40
2023-03-20T22:02:49.207Z,8.60
2023-03-20T22:09:09.587Z,8.80
2023-03-20T22:14:19.124Z,9.00
2023-03-20T22:24:45.242Z,9.10
2023-03-20T22:30:11.331Z,9.30
2023-03-20T22:45:42.538Z,9.30
2023-03-20T22:50:50.490Z,9.20
2023-03-20T22:55:54.015Z,9.20
2023-03-20T23:00:57.330Z,9.10
2023-03-20T23:06:10.389Z,9.10
2023-03-20T23:11:17.835Z,9.00
2023-03-20T23:16:21.214Z,8.90
2023-03-20T23:21:24.569Z,8.80
2023-03-20T23:26:27.128Z,8.80
2023-03-20T23:31:29.802Z,8.80
2023-03-20T23:36:36.818Z,8.80
2023-03-20T23:47:11.210Z,8.80
2023-03-20T23:52:17.397Z,8.80
2023-03-20T23:57:20.076Z,8.70
